Time;durP1;ratioP1;P1;durP2;ratioP2;P2;SDS_P1;SDS_P2;PMS_P1;PMS_P2;Temp;Humidity;BMP_temperature;BMP_pressure;BME280_temperature;BME280_humidity;BME280_pressure;Samples;Min_cycle;Max_cycle;Signal;HPM_P1;HPM_P2
2024/01/10 00:01:43;;;;;;;15.13;6.88;;;20.00;99.90;;;;;;5008723;28;20042;-52
2024/01/10 00:04:09;;;;;;;15.68;7.35;;;20.00;99.90;;;;;;5006917;28;20489;-54
2024/01/10 00:06:34;;;;;;;15.25;6.05;;;20.00;99.90;;;;;;5001921;28;20435;-53
2024/01/10 00:09:00;;;;;;;10.45;5.70;;;20.10;99.90;;;;;;5008142;28;20398;-52
2024/01/10 00:11:26;;;;;;;13.05;5.82;;;20.10;99.90;;;;;;5013078;28;20091;-54
2024/01/10 00:13:52;;;;;;;14.60;6.30;;;20.10;99.90;;;;;;5013351;28;20026;-55
2024/01/10 00:16:17;;;;;;;10.90;6.05;;;20.10;99.90;;;;;;5012114;28;20033;-54
2024/01/10 00:18:43;;;;;;;12.82;6.78;;;20.20;99.90;;;;;;5011892;28;20028;-55
2024/01/10 00:21:10;;;;;;;11.85;6.03;;;20.20;99.90;;;;;;5013381;28;20121;-53
2024/01/10 00:23:36;;;;;;;11.10;5.20;;;20.20;99.90;;;;;;5011551;28;20201;-53
2024/01/10 00:26:02;;;;;;;10.40;5.85;;;20.20;99.90;;;;;;5007149;28;20510;-53
2024/01/10 00:28:27;;;;;;;14.00;6.43;;;20.20;99.90;;;;;;5012817;28;20029;-53
2024/01/10 00:30:53;;;;;;;11.20;5.40;;;20.20;99.90;;;;;;5010436;28;20414;-53
2024/01/10 00:33:19;;;;;;;12.73;6.28;;;20.30;99.90;;;;;;5011156;28;20025;-52
2024/01/10 00:35:45;;;;;;;11.63;5.72;;;20.30;99.90;;;;;;5003002;28;20038;-54
2024/01/10 00:38:10;;;;;;;11.18;6.10;;;20.30;99.90;;;;;;5008043;28;20110;-53
2024/01/10 00:40:36;;;;;;;12.73;5.72;;;20.30;99.90;;;;;;5010691;28;20120;-55
2024/01/10 00:43:02;;;;;;;16.42;6.43;;;20.30;99.90;;;;;;5007098;28;20042;-53
2024/01/10 00:45:28;;;;;;;14.10;5.75;;;20.30;99.90;;;;;;5012807;28;20109;-53
2024/01/10 00:47:54;;;;;;;9.70;6.05;;;20.30;99.90;;;;;;5012395;28;20443;-53
2024/01/10 00:50:20;;;;;;;11.63;6.03;;;20.30;99.90;;;;;;5007267;28;20383;-55
2024/01/10 00:52:46;;;;;;;10.88;5.72;;;20.30;99.90;;;;;;5003589;28;20042;-54
2024/01/10 00:55:12;;;;;;;10.90;4.80;;;20.30;99.90;;;;;;5008521;28;20025;-53
2024/01/10 00:57:38;;;;;;;10.38;4.88;;;20.20;99.90;;;;;;5007494;28;20026;-54
2024/01/10 01:00:08;;;;;;;11.73;5.18;;;20.20;99.90;;;;;;4994779;28;20498;-53
2024/01/10 01:02:34;;;;;;;9.95;5.88;;;20.20;99.90;;;;;;4998839;28;20117;-53
2024/01/10 01:05:00;;;;;;;10.05;5.50;;;20.20;99.90;;;;;;5013013;28;20437;-52
2024/01/10 01:07:27;;;;;;;10.05;5.20;;;20.20;99.90;;;;;;5010771;28;20093;-53
2024/01/10 01:09:52;;;;;;;14.00;5.10;;;20.20;99.90;;;;;;5004743;28;20030;-54
2024/01/10 01:12:18;;;;;;;11.80;5.45;;;20.20;99.90;;;;;;5003628;28;20030;-54
2024/01/10 01:14:44;;;;;;;11.02;5.50;;;20.20;99.90;;;;;;5007810;28;20550;-54
2024/01/10 01:17:10;;;;;;;9.88;5.07;;;20.10;99.90;;;;;;5000516;28;20038;-52
2024/01/10 01:19:36;;;;;;;11.13;5.45;;;20.10;99.90;;;;;;5010993;28;20113;-54
2024/01/10 01:22:02;;;;;;;11.25;5.45;;;20.10;99.90;;;;;;5011943;28;20076;-54
2024/01/10 01:24:27;;;;;;;10.38;5.20;;;20.10;99.90;;;;;;5008776;28;20101;-54
2024/01/10 01:26:53;;;;;;;8.27;4.43;;;20.00;99.90;;;;;;5011660;28;20034;-54
2024/01/10 01:29:20;;;;;;;9.10;4.85;;;20.00;99.90;;;;;;5012309;28;20482;-53
2024/01/10 01:31:46;;;;;;;7.77;4.40;;;20.00;99.90;;;;;;5010122;28;20028;-54
2024/01/10 01:34:12;;;;;;;9.77;5.65;;;20.00;99.90;;;;;;5012206;28;20029;-54
2024/01/10 01:36:38;;;;;;;10.82;4.82;;;20.00;99.90;;;;;;5010825;28;20030;-54
2024/01/10 01:39:04;;;;;;;9.77;4.78;;;19.90;99.90;;;;;;5012130;28;20026;-54
2024/01/10 01:41:30;;;;;;;8.20;4.80;;;19.90;99.90;;;;;;5010741;28;20472;-55
2024/01/10 01:43:56;;;;;;;7.18;4.55;;;19.90;99.90;;;;;;5011924;28;20058;-54
2024/01/10 01:46:22;;;;;;;5.82;4.25;;;19.90;99.90;;;;;;5011286;28;20433;-54
2024/01/10 01:48:49;;;;;;;10.73;4.87;;;19.90;99.90;;;;;;5004715;28;20049;-54
2024/01/10 01:51:16;;;;;;;8.30;4.68;;;19.80;99.90;;;;;;5008596;28;20068;-55
2024/01/10 01:53:44;;;;;;;9.90;5.13;;;19.80;99.90;;;;;;5010353;28;20022;-55
2024/01/10 01:56:12;;;;;;;7.88;4.55;;;19.80;99.90;;;;;;5010474;28;20108;-54
2024/01/10 01:58:39;;;;;;;7.00;4.30;;;19.80;99.90;;;;;;5011080;28;20022;-54
2024/01/10 02:01:05;;;;;;;8.52;4.43;;;19.80;99.90;;;;;;5022883;23;20409;-53
2024/01/10 02:03:33;;;;;;;7.90;4.00;;;19.80;99.90;;;;;;5011990;28;20105;-56
2024/01/10 02:06:03;;;;;;;8.45;5.13;;;19.80;99.90;;;;;;4999593;28;20429;-54
2024/01/10 02:08:32;;;;;;;8.07;4.32;;;19.70;99.90;;;;;;5011502;28;20030;-55
2024/01/10 02:11:00;;;;;;;7.93;4.38;;;19.70;99.90;;;;;;5010571;28;20033;-53
2024/01/10 02:13:26;;;;;;;9.18;4.20;;;19.70;99.90;;;;;;5010366;28;20018;-53
2024/01/10 02:15:52;;;;;;;9.63;4.75;;;19.70;99.90;;;;;;5010901;28;20014;-54
2024/01/10 02:18:18;;;;;;;9.45;4.10;;;19.70;99.90;;;;;;5011669;28;20386;-54
2024/01/10 02:20:44;;;;;;;8.52;4.47;;;19.60;99.90;;;;;;5011630;28;20022;-54
2024/01/10 02:23:11;;;;;;;8.60;4.40;;;19.60;99.90;;;;;;5012024;28;20084;-53
2024/01/10 02:25:37;;;;;;;7.78;3.92;;;19.60;99.90;;;;;;5005922;28;20021;-54
2024/01/10 02:28:03;;;;;;;6.93;3.97;;;19.60;99.90;;;;;;5011239;28;20446;-55
2024/01/10 02:30:29;;;;;;;8.35;4.07;;;19.60;99.90;;;;;;5008541;28;20532;-54
2024/01/10 02:32:55;;;;;;;5.47;3.40;;;19.60;99.90;;;;;;5016734;28;20034;-54
2024/01/10 02:35:20;;;;;;;6.85;4.07;;;19.50;99.90;;;;;;5011677;28;20101;-55
2024/01/10 02:37:46;;;;;;;7.28;4.68;;;19.50;99.90;;;;;;5011629;28;20033;-53
2024/01/10 02:40:12;;;;;;;6.63;3.45;;;19.50;99.90;;;;;;5015967;28;20390;-54
2024/01/10 02:42:40;;;;;;;8.68;3.90;;;19.50;99.90;;;;;;5008861;28;20430;-54
2024/01/10 02:45:06;;;;;;;7.93;4.75;;;19.50;99.90;;;;;;5011761;28;20050;-55
2024/01/10 02:47:32;;;;;;;7.50;3.30;;;19.50;99.90;;;;;;5009844;28;20037;-55
2024/01/10 02:49:57;;;;;;;6.43;3.60;;;19.40;99.90;;;;;;5011384;28;20022;-54
2024/01/10 02:52:23;;;;;;;7.38;3.70;;;19.40;99.90;;;;;;5011413;28;20125;-55
2024/01/10 02:54:49;;;;;;;6.82;3.72;;;19.40;99.90;;;;;;5010341;28;20485;-55
2024/01/10 02:57:15;;;;;;;5.25;3.15;;;19.40;99.90;;;;;;5014346;28;20014;-55
2024/01/10 02:59:40;;;;;;;7.90;3.47;;;19.40;99.90;;;;;;5014917;28;20088;-55
2024/01/10 03:02:06;;;;;;;6.97;3.50;;;19.40;99.90;;;;;;5047705;22;20579;-53
2024/01/10 03:04:32;;;;;;;10.40;4.38;;;19.30;99.90;;;;;;5034764;28;20072;-53
2024/01/10 03:06:58;;;;;;;6.80;3.60;;;19.40;99.90;;;;;;5034994;28;20413;-53
2024/01/10 03:09:24;;;;;;;6.28;3.55;;;19.30;99.90;;;;;;5035030;28;20363;-53
2024/01/10 03:11:49;;;;;;;8.45;3.65;;;19.30;99.90;;;;;;5033601;28;20021;-54
2024/01/10 03:14:15;;;;;;;7.25;3.53;;;19.30;99.90;;;;;;5033457;28;20022;-53
2024/01/10 03:16:41;;;;;;;6.32;3.55;;;19.30;99.90;;;;;;5035008;28;20612;-54
2024/01/10 03:19:07;;;;;;;8.60;3.35;;;19.30;99.90;;;;;;5034829;28;20022;-53
2024/01/10 03:21:32;;;;;;;7.82;3.95;;;19.20;99.90;;;;;;5033453;28;20136;-54
2024/01/10 03:24:00;;;;;;;9.07;3.42;;;19.30;99.90;;;;;;5034587;28;20036;-53
2024/01/10 03:26:27;;;;;;;5.72;3.60;;;19.20;99.90;;;;;;5034779;28;20028;-53
2024/01/10 03:28:53;;;;;;;8.45;3.95;;;19.20;99.90;;;;;;5043364;28;20412;-53
2024/01/10 03:31:19;;;;;;;15.40;4.55;;;19.20;99.90;;;;;;5054722;28;20017;-52
2024/01/10 03:33:45;;;;;;;7.72;3.88;;;19.20;99.90;;;;;;5054555;28;20050;-52
2024/01/10 03:36:16;;;;;;;6.68;3.25;;;19.20;99.90;;;;;;5054485;28;20512;-52
2024/01/10 03:38:42;;;;;;;12.68;4.50;;;19.20;99.90;;;;;;5054195;28;20503;-52
2024/01/10 03:41:13;;;;;;;11.85;4.30;;;19.20;99.90;;;;;;5054462;28;20040;-52
2024/01/10 03:43:39;;;;;;;7.25;3.67;;;19.10;99.90;;;;;;5054221;28;20021;-52
2024/01/10 03:46:05;;;;;;;5.80;3.30;;;19.10;99.90;;;;;;5054384;28;20033;-52
2024/01/10 03:48:31;;;;;;;7.78;3.53;;;19.10;99.90;;;;;;5052829;28;20028;-53
2024/01/10 03:50:57;;;;;;;9.65;3.45;;;19.10;99.90;;;;;;5054354;28;20477;-52
2024/01/10 03:53:23;;;;;;;6.45;3.30;;;19.10;99.90;;;;;;5054099;28;20028;-52
2024/01/10 03:55:49;;;;;;;4.53;3.00;;;19.10;99.90;;;;;;5054025;28;20491;-52
2024/01/10 03:58:14;;;;;;;10.95;3.55;;;19.00;99.90;;;;;;5054233;28;20053;-52
2024/01/10 04:00:40;;;;;;;9.32;3.55;;;19.00;99.90;;;;;;5062492;22;20033;-47
2024/01/10 04:03:06;;;;;;;8.10;3.00;;;19.00;99.90;;;;;;5014244;28;20085;-50
2024/01/10 04:05:32;;;;;;;8.02;3.72;;;19.00;99.90;;;;;;5014152;28;20386;-49
2024/01/10 04:07:58;;;;;;;7.53;3.03;;;19.00;99.90;;;;;;5013756;28;20104;-50
2024/01/10 04:10:23;;;;;;;4.47;2.97;;;19.00;99.90;;;;;;5014129;28;20156;-49
2024/01/10 04:12:50;;;;;;;5.80;3.15;;;19.00;99.90;;;;;;5014103;28;20559;-50
2024/01/10 04:15:17;;;;;;;4.53;2.97;;;19.00;99.90;;;;;;5014064;28;20052;-49
2024/01/10 04:17:43;;;;;;;9.40;3.45;;;19.00;99.90;;;;;;5013828;28;20029;-50
2024/01/10 04:20:09;;;;;;;6.25;3.25;;;18.90;99.90;;;;;;5013889;28;20033;-48
2024/01/10 04:22:35;;;;;;;5.70;3.38;;;18.90;99.90;;;;;;5013775;28;20096;-47
2024/01/10 04:25:04;;;;;;;7.03;3.33;;;18.90;99.90;;;;;;5012582;28;20030;-50
2024/01/10 04:27:30;;;;;;;8.88;3.05;;;18.90;99.90;;;;;;5025070;28;20112;-48
2024/01/10 04:29:56;;;;;;;5.22;2.85;;;18.90;99.90;;;;;;5016392;28;20498;-49
2024/01/10 04:32:21;;;;;;;8.07;3.40;;;18.90;99.90;;;;;;5013706;28;20034;-48
2024/01/10 04:34:47;;;;;;;5.30;2.65;;;18.90;99.90;;;;;;5013623;28;20426;-48
2024/01/10 04:37:14;;;;;;;5.40;2.88;;;18.90;99.90;;;;;;5013590;28;20028;-49
2024/01/10 04:39:42;;;;;;;7.03;2.65;;;18.90;99.90;;;;;;5013719;28;20076;-49
2024/01/10 04:42:10;;;;;;;5.32;3.00;;;18.90;99.90;;;;;;5012379;28;20502;-49
2024/01/10 04:44:36;;;;;;;3.97;2.47;;;18.90;99.90;;;;;;5013416;28;20050;-48
2024/01/10 04:47:03;;;;;;;5.80;2.88;;;18.90;99.90;;;;;;5013249;28;20076;-48
2024/01/10 04:49:28;;;;;;;4.07;2.50;;;18.80;99.90;;;;;;5013541;28;20037;-48
2024/01/10 04:51:54;;;;;;;4.82;2.67;;;18.80;99.90;;;;;;5008127;28;20475;-48
2024/01/10 04:54:20;;;;;;;4.85;2.67;;;18.80;99.90;;;;;;5001396;28;20026;-48
2024/01/10 04:56:46;;;;;;;4.28;2.95;;;18.80;99.90;;;;;;5012242;28;20073;-48
2024/01/10 04:59:12;;;;;;;6.00;3.17;;;18.80;99.90;;;;;;5012551;28;20022;-48
2024/01/10 05:01:38;;;;;;;4.20;2.40;;;18.80;99.90;;;;;;5013270;28;20125;-48
2024/01/10 05:04:04;;;;;;;4.20;2.45;;;18.80;99.90;;;;;;5012263;28;20029;-48
2024/01/10 05:06:30;;;;;;;5.93;2.70;;;18.80;99.90;;;;;;5012851;28;20026;-49
2024/01/10 05:08:57;;;;;;;8.23;3.05;;;18.80;99.90;;;;;;5012899;28;20025;-49
2024/01/10 05:11:27;;;;;;;5.65;2.63;;;18.80;99.90;;;;;;5012856;28;20022;-49
2024/01/10 05:13:53;;;;;;;4.35;3.13;;;18.70;99.90;;;;;;5012797;28;20088;-49
2024/01/10 05:16:19;;;;;;;5.25;2.65;;;18.70;99.90;;;;;;5012758;28;20506;-49
2024/01/10 05:18:45;;;;;;;4.28;2.95;;;18.70;99.90;;;;;;5012788;28;20025;-49
2024/01/10 05:21:10;;;;;;;5.05;2.50;;;18.80;99.90;;;;;;5011674;28;20042;-49
2024/01/10 05:23:38;;;;;;;3.65;2.60;;;18.70;99.90;;;;;;5012687;28;20033;-49
2024/01/10 05:26:04;;;;;;;4.50;2.33;;;18.70;99.90;;;;;;5012588;28;20033;-49
2024/01/10 05:28:30;;;;;;;5.43;2.70;;;18.70;99.90;;;;;;5026579;28;20025;-49
2024/01/10 05:30:57;;;;;;;3.70;2.45;;;18.70;99.90;;;;;;5012697;28;20029;-49
2024/01/10 05:33:22;;;;;;;4.35;2.63;;;18.70;99.90;;;;;;5012448;28;20026;-49
2024/01/10 05:35:48;;;;;;;3.67;2.55;;;18.70;99.90;;;;;;5012575;28;20122;-49
2024/01/10 05:38:14;;;;;;;2.83;2.22;;;18.70;99.90;;;;;;5012232;28;20037;-48
2024/01/10 05:40:40;;;;;;;4.60;3.05;;;18.70;99.90;;;;;;5011257;28;20022;-48
2024/01/10 05:43:07;;;;;;;5.32;2.28;;;18.70;99.90;;;;;;5012611;28;20080;-48
2024/01/10 05:45:33;;;;;;;3.42;2.70;;;18.70;99.90;;;;;;5012400;28;20026;-48
2024/01/10 05:47:59;;;;;;;3.47;2.58;;;18.70;99.90;;;;;;5012725;28;20103;-49
2024/01/10 05:50:25;;;;;;;2.90;2.00;;;18.70;99.90;;;;;;5012255;28;20025;-48
2024/01/10 05:52:51;;;;;;;3.50;2.30;;;18.70;99.90;;;;;;5012314;28;20064;-48
2024/01/10 05:55:16;;;;;;;4.70;2.17;;;18.60;99.90;;;;;;5012316;28;20390;-49
2024/01/10 05:57:42;;;;;;;3.72;2.65;;;18.60;99.90;;;;;;5012408;28;20149;-48
2024/01/10 06:00:09;;;;;;;3.95;2.20;;;18.60;99.90;;;;;;5010819;28;20030;-49
2024/01/10 06:02:38;;;;;;;4.00;2.40;;;18.60;99.90;;;;;;5012000;28;20057;-49
2024/01/10 06:05:08;;;;;;;4.35;2.38;;;18.60;99.90;;;;;;5012121;28;20259;-49
2024/01/10 06:07:35;;;;;;;3.35;2.83;;;18.60;99.90;;;;;;5012086;28;20029;-48
2024/01/10 06:10:01;;;;;;;4.97;2.35;;;18.60;99.90;;;;;;5012328;28;20105;-49
2024/01/10 06:12:28;;;;;;;8.82;2.38;;;18.60;99.90;;;;;;5011849;28;20018;-49
2024/01/10 06:14:54;;;;;;;4.45;2.72;;;18.60;99.90;;;;;;5011992;28;20022;-49
2024/01/10 06:17:20;;;;;;;3.28;2.22;;;18.60;99.90;;;;;;5011852;28;20040;-49
2024/01/10 06:19:45;;;;;;;3.28;2.20;;;18.60;99.90;;;;;;5011937;28;20018;-49
2024/01/10 06:22:11;;;;;;;3.05;2.10;;;18.60;99.90;;;;;;5012138;28;20044;-48
2024/01/10 06:24:43;;;;;;;2.50;2.03;;;18.60;99.90;;;;;;5011814;28;20030;-49
2024/01/10 06:27:09;;;;;;;2.75;2.00;;;18.60;99.90;;;;;;5020114;28;20033;-49
2024/01/10 06:29:36;;;;;;;6.25;2.80;;;18.60;99.90;;;;;;5017170;28;20018;-49
2024/01/10 06:32:06;;;;;;;4.55;2.22;;;18.60;99.90;;;;;;5014703;28;20116;-49
2024/01/10 06:34:32;;;;;;;3.60;2.20;;;18.60;99.90;;;;;;5016226;28;20037;-49
2024/01/10 06:36:58;;;;;;;3.28;2.25;;;18.60;99.90;;;;;;5015732;28;20022;-49
2024/01/10 06:39:24;;;;;;;3.28;1.90;;;18.60;99.90;;;;;;5015749;28;20036;-49
2024/01/10 06:41:50;;;;;;;3.35;2.10;;;18.50;99.90;;;;;;5015579;28;20390;-49
2024/01/10 06:44:19;;;;;;;2.72;1.83;;;18.50;99.90;;;;;;5015762;28;20018;-49
2024/01/10 06:46:45;;;;;;;4.57;1.80;;;18.50;99.90;;;;;;5015576;28;20030;-49
2024/01/10 06:49:12;;;;;;;2.95;2.15;;;18.50;99.90;;;;;;5015595;28;20104;-49
2024/01/10 06:51:38;;;;;;;3.50;1.90;;;18.50;99.90;;;;;;5015548;28;20407;-49
2024/01/10 06:54:05;;;;;;;3.38;2.35;;;18.50;99.90;;;;;;5015714;28;20033;-49
2024/01/10 06:56:31;;;;;;;2.13;1.47;;;18.50;99.90;;;;;;5015888;28;20108;-49
2024/01/10 06:58:58;;;;;;;3.55;2.00;;;18.50;99.90;;;;;;5013916;28;20026;-49
2024/01/10 07:01:23;;;;;;;3.42;1.88;;;18.50;99.90;;;;;;5015180;28;20053;-49
2024/01/10 07:03:49;;;;;;;2.25;1.83;;;18.50;99.90;;;;;;5015295;28;20030;-49
2024/01/10 07:06:15;;;;;;;4.10;2.15;;;18.50;99.90;;;;;;5015296;28;20022;-49
2024/01/10 07:08:42;;;;;;;2.97;2.00;;;18.50;99.90;;;;;;5015160;28;20021;-49
2024/01/10 07:11:08;;;;;;;3.13;2.10;;;18.50;99.90;;;;;;5015247;28;20042;-49
2024/01/10 07:13:34;;;;;;;2.50;1.80;;;18.50;99.90;;;;;;5015247;28;20073;-49
2024/01/10 07:16:01;;;;;;;3.67;1.92;;;18.50;99.90;;;;;;5015214;28;20033;-49
2024/01/10 07:18:28;;;;;;;3.85;2.05;;;18.50;99.90;;;;;;5015232;28;20097;-49
2024/01/10 07:20:54;;;;;;;2.80;2.03;;;18.50;99.90;;;;;;5013450;28;20030;-49
2024/01/10 07:23:20;;;;;;;2.92;2.10;;;18.50;99.90;;;;;;5014979;28;20096;-49
2024/01/10 07:25:46;;;;;;;3.60;2.00;;;18.50;99.90;;;;;;5014914;28;20351;-49
2024/01/10 07:28:12;;;;;;;3.38;2.03;;;18.50;99.90;;;;;;5027621;28;20430;-49
2024/01/10 07:30:37;;;;;;;5.18;2.17;;;18.50;99.90;;;;;;5014779;28;20014;-49
2024/01/10 07:33:03;;;;;;;2.30;1.80;;;18.50;99.90;;;;;;5014875;28;20037;-48
2024/01/10 07:35:30;;;;;;;2.72;2.03;;;18.40;99.90;;;;;;5014848;28;20032;-48
2024/01/10 07:37:56;;;;;;;2.75;1.80;;;18.50;99.90;;;;;;5014612;28;20036;-48
2024/01/10 07:40:22;;;;;;;3.03;1.90;;;18.40;99.90;;;;;;5014549;28;20390;-48
2024/01/10 07:42:48;;;;;;;4.20;1.80;;;18.40;99.90;;;;;;5013500;28;20084;-49
2024/01/10 07:45:14;;;;;;;3.17;1.95;;;18.40;99.90;;;;;;5014389;28;20022;-49
2024/01/10 07:47:40;;;;;;;2.55;2.03;;;18.50;99.90;;;;;;5014646;28;20517;-50
2024/01/10 07:50:14;;;;;;;1.88;1.50;;;18.40;99.90;;;;;;5014565;28;20053;-49
2024/01/10 07:52:40;;;;;;;3.95;1.80;;;18.50;99.90;;;;;;5014413;28;20026;-49
2024/01/10 07:55:08;;;;;;;2.58;1.35;;;18.50;99.90;;;;;;5014381;28;20021;-48
2024/01/10 07:57:34;;;;;;;;;;;18.50;99.90;;;;;;5014905;28;20112;-49
2024/01/10 08:00:00;;;;;;;2.38;1.70;;;18.50;99.90;;;;;;5014263;28;20441;-49
2024/01/10 08:02:26;;;;;;;2.72;1.70;;;18.50;99.90;;;;;;5013977;28;20080;-48
2024/01/10 08:04:54;;;;;;;4.07;2.00;;;18.60;99.90;;;;;;5014096;28;20437;-49
2024/01/10 08:07:20;;;;;;;2.55;1.70;;;18.60;99.90;;;;;;5014103;28;20018;-48
2024/01/10 08:09:46;;;;;;;2.58;1.55;;;18.60;99.90;;;;;;5014202;28;20093;-48
2024/01/10 08:12:11;;;;;;;5.25;1.65;;;18.60;99.90;;;;;;5012725;28;20501;-48
2024/01/10 08:14:37;;;;;;;3.95;1.67;;;18.60;99.90;;;;;;5013942;28;20351;-48
2024/01/10 08:17:04;;;;;;;3.80;1.58;;;18.70;99.90;;;;;;5014230;28;20029;-48
2024/01/10 08:19:29;;;;;;;2.60;1.50;;;18.70;99.90;;;;;;5013766;28;20140;-48
2024/01/10 08:21:56;;;;;;;2.30;1.35;;;18.70;99.90;;;;;;5013925;28;20546;-49
2024/01/10 08:24:22;;;;;;;1.55;1.27;;;18.70;99.90;;;;;;5013745;28;20010;-48
2024/01/10 08:26:51;;;;;;;2.13;1.83;;;18.80;99.90;;;;;;5019065;28;20024;-49
2024/01/10 08:29:21;;;;;;;3.20;1.70;;;18.80;99.90;;;;;;5021774;28;20037;-48
2024/01/10 08:31:48;;;;;;;3.67;1.92;;;18.80;99.90;;;;;;5013685;28;20015;-48
2024/01/10 08:34:14;;;;;;;2.28;1.55;;;18.90;99.90;;;;;;5012304;28;20076;-49
2024/01/10 08:36:39;;;;;;;3.13;2.00;;;18.90;99.90;;;;;;5013516;28;20030;-48
2024/01/10 08:39:06;;;;;;;2.90;2.00;;;18.90;99.90;;;;;;5013774;28;20022;-50
2024/01/10 08:41:33;;;;;;;2.33;1.75;;;19.00;99.90;;;;;;5012120;28;20038;-48
2024/01/10 08:43:59;;;;;;;2.92;1.90;;;19.00;99.90;;;;;;5013386;28;20129;-49
2024/01/10 08:46:25;;;;;;;2.45;1.73;;;19.00;99.90;;;;;;5013420;28;20022;-49
2024/01/10 08:48:51;;;;;;;3.25;1.75;;;19.10;99.90;;;;;;5012070;28;20024;-49
2024/01/10 08:51:17;;;;;;;3.03;2.05;;;19.00;99.90;;;;;;5022949;28;20030;-49
2024/01/10 08:53:43;;;;;;;2.75;2.00;;;19.10;99.90;;;;;;5015786;28;20100;-49
2024/01/10 08:56:10;;;;;;;3.08;2.28;;;19.10;99.90;;;;;;5013244;28;20136;-49
2024/01/10 08:58:36;;;;;;;3.00;1.98;;;19.10;99.90;;;;;;5013304;28;20032;-49
2024/01/10 09:01:05;;;;;;;2.97;1.80;;;19.10;99.90;;;;;;5012761;28;20402;-49
2024/01/10 09:03:30;;;;;;;3.75;2.00;;;19.10;99.90;;;;;;5012922;28;20026;-49
2024/01/10 09:05:56;;;;;;;3.17;1.60;;;19.20;99.90;;;;;;5012885;28;20067;-49
2024/01/10 09:08:22;;;;;;;3.08;2.30;;;19.20;99.90;;;;;;5012896;28;20383;-49
2024/01/10 09:10:49;;;;;;;2.53;2.20;;;19.20;99.90;;;;;;5012741;28;20046;-49
2024/01/10 09:13:15;;;;;;;4.28;2.25;;;19.20;99.90;;;;;;5012825;28;20460;-49
2024/01/10 09:15:41;;;;;;;2.92;2.00;;;19.20;99.90;;;;;;5012581;28;20050;-49
2024/01/10 09:18:08;;;;;;;2.58;2.10;;;19.20;99.90;;;;;;5012939;28;20064;-49
2024/01/10 09:20:34;;;;;;;2.63;2.20;;;19.20;99.90;;;;;;5011262;28;20037;-49
2024/01/10 09:23:00;;;;;;;2.97;2.03;;;19.20;99.90;;;;;;5012694;28;20437;-49
2024/01/10 09:25:26;;;;;;;2.47;1.90;;;19.20;99.90;;;;;;5012662;28;20029;-49
2024/01/10 09:27:52;;;;;;;5.47;2.70;;;19.20;99.90;;;;;;5024893;28;20026;-49
2024/01/10 09:30:18;;;;;;;3.53;2.33;;;19.20;99.90;;;;;;5011242;28;20036;-49
2024/01/10 09:32:45;;;;;;;3.20;1.90;;;19.20;99.90;;;;;;5012634;28;20022;-49
2024/01/10 09:35:11;;;;;;;2.83;2.17;;;19.30;99.90;;;;;;5012298;28;20033;-49
2024/01/10 09:37:36;;;;;;;3.45;2.10;;;19.20;99.90;;;;;;5012566;28;20057;-49
2024/01/10 09:40:03;;;;;;;3.15;1.90;;;19.30;99.90;;;;;;5012167;28;20459;-49
2024/01/10 09:42:31;;;;;;;2.72;1.95;;;19.30;99.90;;;;;;5012376;28;20548;-49
2024/01/10 09:44:58;;;;;;;3.03;2.20;;;19.30;99.90;;;;;;5012225;28;20014;-49
2024/01/10 09:47:24;;;;;;;3.00;2.33;;;19.30;99.90;;;;;;5011156;28;20117;-49
2024/01/10 09:49:50;;;;;;;3.08;2.25;;;19.30;99.90;;;;;;5012141;28;20026;-49
2024/01/10 09:52:27;;;;;;;2.78;1.98;;;19.30;99.90;;;;;;5012021;28;20024;-49
2024/01/10 09:54:57;;;;;;;3.27;2.47;;;19.30;99.90;;;;;;5012117;28;20033;-49
2024/01/10 09:57:27;;;;;;;3.08;2.15;;;19.30;99.90;;;;;;5010771;28;20046;-49
2024/01/10 09:59:56;;;;;;;2.58;2.03;;;19.30;99.90;;;;;;5012049;28;20493;-49
2024/01/10 10:02:23;;;;;;;4.65;2.55;;;19.40;99.90;;;;;;5011650;28;20409;-49
2024/01/10 10:05:14;;;;;;;7.63;2.42;;;19.40;99.90;;;;;;5012105;28;20022;-49
2024/01/10 10:07:50;;;;;;;3.10;2.25;;;19.40;99.90;;;;;;5011767;28;20030;-49
2024/01/10 10:10:17;;;;;;;1.80;1.42;;;19.40;99.90;;;;;;5010846;28;20037;-49
2024/01/10 10:12:53;;;;;;;3.65;1.92;;;19.40;99.90;;;;;;5010491;28;20021;-48
2024/01/10 10:15:27;;;;;;;3.03;2.00;;;19.40;99.90;;;;;;5011883;28;20490;-49
2024/01/10 10:17:53;;;;;;;4.97;2.28;;;19.50;99.90;;;;;;5010695;28;20026;-49
2024/01/10 10:20:26;;;;;;;2.50;1.90;;;19.50;99.90;;;;;;5011681;28;20030;-49
2024/01/10 10:23:10;;;;;;;3.38;2.25;;;19.50;99.90;;;;;;5011698;28;20048;-49
2024/01/10 10:25:39;;;;;;;2.05;1.80;;;19.60;99.90;;;;;;5011731;28;20505;-49
2024/01/10 10:28:05;;;;;;;3.78;2.03;;;19.60;99.90;;;;;;5025545;28;20025;-49
2024/01/10 10:30:32;;;;;;;4.57;2.42;;;19.70;99.90;;;;;;5010442;28;20036;-48
2024/01/10 10:32:57;;;;;;;2.50;1.80;;;19.80;99.90;;;;;;5010182;28;20028;-49
2024/01/10 10:35:23;;;;;;;4.22;1.95;;;19.80;99.90;;;;;;5011678;28;20525;-49
2024/01/10 10:37:52;;;;;;;4.50;2.00;;;19.90;99.90;;;;;;5011512;28;20022;-49
2024/01/10 10:40:19;;;;;;;3.13;2.13;;;19.90;99.90;;;;;;5011329;28;20018;-49
2024/01/10 10:42:54;;;;;;;3.03;2.25;;;20.00;99.90;;;;;;5011580;28;20117;-50
2024/01/10 10:45:25;;;;;;;2.20;1.83;;;20.10;99.90;;;;;;5011331;28;20018;-49
2024/01/10 10:48:00;;;;;;;2.83;1.98;;;20.10;99.90;;;;;;5011605;28;20091;-50
2024/01/10 10:50:33;;;;;;;2.70;1.80;;;20.20;99.90;;;;;;5011511;28;20386;-49
2024/01/10 10:53:03;;;;;;;2.97;2.20;;;20.20;99.90;;;;;;5011564;28;20144;-49
2024/01/10 10:55:29;;;;;;;3.22;2.50;;;20.30;99.90;;;;;;5011425;28;20049;-49
2024/01/10 10:57:56;;;;;;;3.00;2.15;;;20.30;99.90;;;;;;5011627;28;20037;-49
2024/01/10 11:00:27;;;;;;;2.80;2.15;;;20.40;99.90;;;;;;5011340;28;20026;-49
2024/01/10 11:02:57;;;;;;;2.72;2.17;;;20.40;99.90;;;;;;5011457;28;20046;-50
2024/01/10 11:05:24;;;;;;;6.88;2.67;;;20.40;99.90;;;;;;5011424;28;20045;-50
2024/01/10 11:07:52;;;;;;;3.78;2.20;;;20.50;99.90;;;;;;5011365;28;20033;-49
2024/01/10 11:10:33;;;;;;;5.80;2.53;;;20.50;99.90;;;;;;5011384;28;20038;-50
2024/01/10 11:13:23;;;;;;;3.80;2.60;;;20.50;99.90;;;;;;4999512;28;20374;-49
2024/01/10 11:16:11;;;;;;;4.53;2.53;;;20.60;99.90;;;;;;5011254;28;20359;-49
2024/01/10 11:18:55;;;;;;;3.05;2.38;;;20.60;99.90;;;;;;5012813;28;20102;-50
2024/01/10 11:21:36;;;;;;;2.97;2.40;;;20.70;99.90;;;;;;5001840;28;20115;-49
2024/01/10 11:24:04;;;;;;;3.40;2.45;;;20.70;99.90;;;;;;5014679;28;20026;-49
2024/01/10 11:26:31;;;;;;;3.72;2.70;;;20.70;99.90;;;;;;5016450;28;20428;-49
2024/01/10 11:28:57;;;;;;;3.58;2.75;;;20.70;99.90;;;;;;5025453;28;20482;-49
2024/01/10 11:31:31;;;;;;;4.78;3.05;;;20.70;99.90;;;;;;5014635;28;20026;-50
2024/01/10 11:33:58;;;;;;;3.83;2.90;;;20.70;99.90;;;;;;5014724;28;20022;-49
2024/01/10 11:36:26;;;;;;;5.15;3.30;;;20.70;99.90;;;;;;5013270;28;20544;-49
2024/01/10 11:38:56;;;;;;;4.65;2.83;;;20.70;99.90;;;;;;5014656;28;20398;-49
2024/01/10 11:41:36;;;;;;;7.28;2.95;;;20.70;99.90;;;;;;5014650;28;20113;-49
2024/01/10 11:44:17;;;;;;;4.10;2.90;;;20.70;99.90;;;;;;5002213;28;20022;-49
2024/01/10 11:46:52;;;;;;;7.35;3.22;;;20.70;99.90;;;;;;5014577;28;20033;-49
2024/01/10 11:49:19;;;;;;;6.18;3.33;;;20.70;99.90;;;;;;5014330;28;20022;-49
2024/01/10 11:51:46;;;;;;;5.07;3.38;;;20.70;99.90;;;;;;5012817;28;20034;-49
2024/01/10 11:54:32;;;;;;;6.63;3.45;;;20.70;99.90;;;;;;5014447;28;20124;-49
2024/01/10 11:57:00;;;;;;;4.35;3.42;;;20.70;99.90;;;;;;5013959;28;20493;-49
2024/01/10 11:59:27;;;;;;;5.75;3.58;;;20.70;99.90;;;;;;5011921;28;20021;-50
2024/01/10 12:01:54;;;;;;;4.50;3.58;;;20.70;99.90;;;;;;4995449;28;20094;-50
2024/01/10 12:04:20;;;;;;;6.40;3.70;;;20.70;99.90;;;;;;5006656;28;20026;-50
2024/01/10 12:06:46;;;;;;;5.80;3.08;;;20.80;99.90;;;;;;5006698;28;20498;-48
2024/01/10 12:09:13;;;;;;;5.20;3.72;;;20.80;99.90;;;;;;5011470;28;20434;-49
2024/01/10 12:11:42;;;;;;;4.00;3.23;;;20.80;99.90;;;;;;4998138;28;20034;-48
2024/01/10 12:14:08;;;;;;;6.53;3.60;;;20.90;99.90;;;;;;5009947;28;20093;-49
2024/01/10 12:16:35;;;;;;;4.90;3.57;;;20.90;99.90;;;;;;5013896;28;20030;-49
2024/01/10 12:19:01;;;;;;;3.92;3.03;;;20.90;99.90;;;;;;5013662;28;20255;-49
2024/01/10 12:21:27;;;;;;;10.07;3.58;;;20.90;99.90;;;;;;5013735;28;20463;-48
2024/01/10 12:23:52;;;;;;;7.18;3.13;;;20.90;99.90;;;;;;5004846;28;20031;-49
2024/01/10 12:26:19;;;;;;;7.25;3.17;;;21.00;99.90;;;;;;5010404;28;20486;-49
2024/01/10 12:28:58;;;;;;;4.20;3.42;;;21.00;99.90;;;;;;5000809;28;20022;-48
2024/01/10 12:31:28;;;;;;;9.00;3.28;;;21.10;99.90;;;;;;5003403;28;20045;-49
2024/01/10 12:33:57;;;;;;;6.68;3.20;;;21.10;99.90;;;;;;5001966;28;20048;-49
2024/01/10 12:36:23;;;;;;;5.45;3.58;;;21.10;99.90;;;;;;5013389;28;20076;-50
2024/01/10 12:38:49;;;;;;;12.23;3.80;;;21.20;99.90;;;;;;5013199;28;20015;-49
2024/01/10 12:41:18;;;;;;;13.35;4.20;;;21.20;99.90;;;;;;5013042;28;20479;-48
2024/01/10 12:43:56;;;;;;;9.93;3.10;;;21.20;99.90;;;;;;5001978;28;20026;-48
2024/01/10 12:46:25;;;;;;;6.45;3.45;;;21.30;99.90;;;;;;5007940;28;20018;-49